Time;durP1;ratioP1;P1;durP2;ratioP2;P2;SDS_P1;SDS_P2;PMS_P1;PMS_P2;Temp;Humidity;BMP_temperature;BMP_pressure;BME280_temperature;BME280_humidity;BME280_pressure;Samples;Min_cycle;Max_cycle;Signal;HPM_P1;HPM_P2
2021/03/24 00:00:25;;;;;;;119.50;47.78;;;;;;;;;;5100280;28;20121;-79
2021/03/24 00:02:52;;;;;;;112.82;48.67;;;;;;;;;;5100359;28;20142;-79
2021/03/24 00:05:19;;;;;;;118.00;48.75;;;;;;;;;;5133258;27;20056;-79
2021/03/24 00:08:02;;;;;;;107.68;47.53;;;;;;;;;;5098850;28;20489;-79
2021/03/24 00:10:32;;;;;;;107.63;46.33;;;;;;;;;;5133644;27;20104;-78
2021/03/24 00:13:01;;;;;;;119.18;49.88;;;;;;;;;;5101837;28;20051;-79
2021/03/24 00:15:27;;;;;;;113.30;47.92;;;;;;;;;;5102289;28;20058;-79
2021/03/24 00:17:56;;;;;;;121.20;49.20;;;;;;;;;;5118814;28;20251;-79
2021/03/24 00:20:27;;;;;;;101.80;46.03;;;;;;;;;;5122044;28;20069;-79
2021/03/24 00:23:01;;;;;;;124.22;50.97;;;;;;;;;;5122812;28;20144;-79
2021/03/24 00:25:27;;;;;;;111.95;47.25;;;;;;;;;;5122728;28;20408;-79
2021/03/24 00:27:54;;;;;;;116.70;51.88;;;;;;;;;;5121897;28;20051;-79
2021/03/24 00:30:25;;;;;;;114.00;49.40;;;;;;;;;;5121213;28;20051;-79
2021/03/24 00:32:54;;;;;;;115.88;48.88;;;;;;;;;;5119691;28;20058;-79
2021/03/24 00:35:23;;;;;;;112.50;46.95;;;;;;;;;;5120079;28;20055;-79
2021/03/24 00:37:49;;;;;;;108.30;47.20;;;;;;;;;;5121592;28;20415;-79
2021/03/24 00:40:21;;;;;;;113.88;48.72;;;;;;;;;;5117725;28;20048;-79
2021/03/24 00:42:47;;;;;;;117.32;47.65;;;;;;;;;;5123018;28;20134;-79
2021/03/24 00:45:16;;;;;;;113.03;49.22;;;;;;;;;;5122348;28;20043;-79
2021/03/24 00:47:43;;;;;;;119.88;49.35;;;;;;;;;;5123158;28;20044;-79
2021/03/24 00:50:18;;;;;;;112.03;47.05;;;;;;;;;;5122583;28;20032;-79
2021/03/24 00:52:46;;;;;;;115.97;48.92;;;;;;;;;;5113365;27;20241;-79
2021/03/24 00:55:17;;;;;;;108.88;47.75;;;;;;;;;;5122885;28;20403;-79
2021/03/24 00:57:44;;;;;;;112.18;49.42;;;;;;;;;;5125103;28;20074;-79
2021/03/24 01:00:21;;;;;;;107.70;47.10;;;;;;;;;;5129515;28;20042;-79
2021/03/24 01:02:47;;;;;;;117.57;49.83;;;;;;;;;;5134643;28;20109;-79
2021/03/24 01:05:14;;;;;;;112.38;46.42;;;;;;;;;;5134401;28;20065;-79
2021/03/24 01:07:44;;;;;;;114.82;47.75;;;;;;;;;;5115462;27;20127;-79
2021/03/24 01:10:16;;;;;;;114.25;49.40;;;;;;;;;;5105095;28;20048;-79
2021/03/24 01:12:41;;;;;;;109.40;45.97;;;;;;;;;;5136477;27;20048;-79
2021/03/24 01:15:08;;;;;;;108.20;47.38;;;;;;;;;;5101986;28;20101;-79
2021/03/24 01:17:38;;;;;;;118.00;48.03;;;;;;;;;;5104511;28;20115;-79
2021/03/24 01:20:11;;;;;;;110.75;49.28;;;;;;;;;;5102949;28;20052;-81
2021/03/24 01:22:54;;;;;;;114.93;48.55;;;;;;;;;;5103414;28;20163;-80
2021/03/24 01:25:26;;;;;;;110.85;48.05;;;;;;;;;;5107861;28;20031;-81
2021/03/24 01:27:56;;;;;;;111.82;49.47;;;;;;;;;;5126467;28;20235;-80
2021/03/24 01:30:29;;;;;;;105.07;46.75;;;;;;;;;;5135822;28;20035;-80
2021/03/24 01:32:56;;;;;;;116.85;49.03;;;;;;;;;;5129830;28;20052;-81
2021/03/24 01:35:26;;;;;;;111.20;47.58;;;;;;;;;;5133837;28;20031;-80
2021/03/24 01:37:52;;;;;;;113.38;48.50;;;;;;;;;;5136418;28;20061;-81
2021/03/24 01:40:30;;;;;;;109.75;46.53;;;;;;;;;;5136449;28;20077;-81
2021/03/24 01:42:58;;;;;;;117.07;49.20;;;;;;;;;;5133447;28;20032;-81
2021/03/24 01:45:27;;;;;;;107.20;46.65;;;;;;;;;;5120427;28;20052;-82
2021/03/24 01:47:54;;;;;;;117.28;48.92;;;;;;;;;;5118907;28;20419;-82
2021/03/24 01:50:30;;;;;;;111.30;47.47;;;;;;;;;;5120907;28;20044;-82
2021/03/24 01:53:13;;;;;;;109.32;49.58;;;;;;;;;;5118706;28;20048;-82
2021/03/24 01:55:42;;;;;;;112.70;49.20;;;;;;;;;;5118744;28;20039;-82
2021/03/24 01:58:08;;;;;;;117.32;47.88;;;;;;;;;;5118791;28;20305;-82
2021/03/24 02:00:37;;;;;;;111.18;47.88;;;;;;;;;;5119529;28;20410;-82
2021/03/24 02:03:04;;;;;;;108.55;49.75;;;;;;;;;;5117351;28;20055;-82
2021/03/24 02:05:32;;;;;;;117.07;50.33;;;;;;;;;;5119611;28;20058;-82
2021/03/24 02:08:03;;;;;;;115.82;49.45;;;;;;;;;;5120199;28;20059;-82
2021/03/24 02:10:29;;;;;;;109.10;48.72;;;;;;;;;;5119007;28;20043;-82
2021/03/24 02:13:00;;;;;;;115.85;47.70;;;;;;;;;;5118939;28;20108;-82
2021/03/24 02:15:31;;;;;;;112.05;50.85;;;;;;;;;;5123994;28;20295;-82
2021/03/24 02:17:59;;;;;;;120.50;50.28;;;;;;;;;;5129533;28;20035;-80
2021/03/24 02:20:27;;;;;;;111.85;49.67;;;;;;;;;;5134589;28;20063;-80
2021/03/24 02:23:01;;;;;;;117.47;47.55;;;;;;;;;;5126389;28;20051;-81
2021/03/24 02:25:31;;;;;;;113.73;49.93;;;;;;;;;;5123438;28;20076;-80
2021/03/24 02:28:02;;;;;;;120.25;50.97;;;;;;;;;;5124050;28;20489;-80
2021/03/24 02:30:33;;;;;;;109.88;48.05;;;;;;;;;;5132566;28;20129;-80
2021/03/24 02:33:02;;;;;;;115.53;49.22;;;;;;;;;;5125775;28;20078;-81
2021/03/24 02:35:34;;;;;;;140.32;51.13;;;;;;;;;;5121590;28;20142;-80
2021/03/24 02:38:06;;;;;;;120.07;52.60;;;;;;;;;;5121871;28;20067;-81
2021/03/24 02:40:36;;;;;;;112.97;48.40;;;;;;;;;;5123062;28;20058;-81
2021/03/24 02:43:03;;;;;;;114.95;48.22;;;;;;;;;;5124343;28;20051;-80
2021/03/24 02:45:34;;;;;;;125.43;53.38;;;;;;;;;;5128807;28;20165;-80
2021/03/24 02:48:05;;;;;;;127.70;52.72;;;;;;;;;;5130032;28;20059;-80
2021/03/24 02:50:37;;;;;;;116.55;50.17;;;;;;;;;;5130836;28;20107;-80
2021/03/24 02:53:07;;;;;;;126.80;54.00;;;;;;;;;;5129690;28;20249;-80
2021/03/24 02:55:37;;;;;;;114.57;49.20;;;;;;;;;;5131120;28;20043;-79
2021/03/24 02:58:03;;;;;;;122.15;52.97;;;;;;;;;;5130636;28;20051;-82
2021/03/24 03:00:32;;;;;;;126.47;52.90;;;;;;;;;;5128653;28;20075;-82
2021/03/24 03:03:01;;;;;;;125.70;53.03;;;;;;;;;;5126250;28;20068;-81
2021/03/24 03:05:32;;;;;;;117.47;51.75;;;;;;;;;;5124780;28;20082;-82
2021/03/24 03:08:04;;;;;;;123.32;51.55;;;;;;;;;;5124779;28;20078;-82
2021/03/24 03:10:34;;;;;;;124.75;53.50;;;;;;;;;;5127302;28;20046;-82
2021/03/24 03:13:09;;;;;;;116.78;52.25;;;;;;;;;;5128997;28;20043;-82
2021/03/24 03:15:45;;;;;;;119.13;52.65;;;;;;;;;;5130228;28;20057;-82
2021/03/24 03:18:13;;;;;;;117.63;51.58;;;;;;;;;;5129088;28;20047;-82
2021/03/24 03:20:42;;;;;;;127.82;53.80;;;;;;;;;;5120895;28;20135;-82
2021/03/24 03:23:14;;;;;;;114.55;52.78;;;;;;;;;;5120346;28;20051;-83
2021/03/24 03:25:45;;;;;;;126.15;55.38;;;;;;;;;;5120243;28;20048;-81
2021/03/24 03:28:16;;;;;;;120.40;51.65;;;;;;;;;;5119037;28;20054;-82
2021/03/24 03:30:46;;;;;;;131.23;54.95;;;;;;;;;;5119104;28;20051;-80
2021/03/24 03:33:16;;;;;;;125.63;53.42;;;;;;;;;;5117371;28;20063;-80
2021/03/24 03:35:44;;;;;;;120.50;53.85;;;;;;;;;;5119868;28;20130;-80
2021/03/24 03:38:16;;;;;;;120.20;54.40;;;;;;;;;;5120007;28;20051;-80
2021/03/24 03:40:43;;;;;;;125.13;53.65;;;;;;;;;;5126844;28;20098;-80
2021/03/24 03:43:10;;;;;;;127.63;54.38;;;;;;;;;;5127845;28;20051;-80
2021/03/24 03:45:37;;;;;;;122.82;51.40;;;;;;;;;;5122884;27;20120;-80
2021/03/24 03:48:04;;;;;;;125.55;53.10;;;;;;;;;;5119650;28;20092;-80
2021/03/24 03:50:30;;;;;;;127.88;55.35;;;;;;;;;;5119391;27;20302;-81
2021/03/24 03:53:03;;;;;;;124.07;52.67;;;;;;;;;;5117410;28;20412;-81
2021/03/24 03:55:38;;;;;;;122.95;51.70;;;;;;;;;;5117230;28;20067;-81
2021/03/24 03:58:23;;;;;;;121.05;55.22;;;;;;;;;;5118553;28;20058;-81
2021/03/24 04:00:51;;;;;;;;;;;;;;;;;;5118262;28;20056;-81
2021/03/24 04:03:23;;;;;;;116.80;52.47;;;;;;;;;;5116796;28;19985;-80
2021/03/24 04:05:58;;;;;;;124.35;52.80;;;;;;;;;;5118080;28;20079;-81
2021/03/24 04:08:29;;;;;;;124.63;53.92;;;;;;;;;;5116293;28;20385;-81
2021/03/24 04:10:59;;;;;;;121.88;51.33;;;;;;;;;;5117490;28;20058;-81
2021/03/24 04:13:29;;;;;;;117.35;53.05;;;;;;;;;;5116283;28;20044;-81
2021/03/24 04:15:59;;;;;;;120.88;53.50;;;;;;;;;;5118255;27;20052;-81
2021/03/24 04:18:41;;;;;;;126.72;55.55;;;;;;;;;;5115844;28;20334;-81
2021/03/24 04:21:11;;;;;;;127.43;54.55;;;;;;;;;;5115576;28;20059;-83
2021/03/24 04:23:39;;;;;;;117.75;52.65;;;;;;;;;;5115501;28;20059;-81
2021/03/24 04:26:32;;;;;;;122.90;53.80;;;;;;;;;;5125080;28;20047;-80
2021/03/24 04:29:04;;;;;;;129.70;54.45;;;;;;;;;;5096665;28;20063;-80
2021/03/24 04:31:30;;;;;;;123.38;55.28;;;;;;;;;;5096975;28;20056;-81
2021/03/24 04:33:56;;;;;;;111.20;52.90;;;;;;;;;;5094276;28;20094;-81
2021/03/24 04:36:23;;;;;;;122.03;54.22;;;;;;;;;;5094768;28;20370;-80
2021/03/24 04:38:53;;;;;;;113.40;52.50;;;;;;;;;;5094444;28;20114;-81
2021/03/24 04:41:22;;;;;;;125.55;52.50;;;;;;;;;;5095433;28;20055;-82
2021/03/24 04:43:51;;;;;;;114.22;52.80;;;;;;;;;;5094016;28;20415;-81
2021/03/24 04:46:22;;;;;;;121.90;53.28;;;;;;;;;;5095135;28;20097;-81
2021/03/24 04:48:59;;;;;;;129.68;54.00;;;;;;;;;;5095627;28;20113;-81
2021/03/24 04:51:28;;;;;;;124.00;55.25;;;;;;;;;;5094683;28;20048;-81
2021/03/24 04:54:08;;;;;;;119.38;53.35;;;;;;;;;;5092056;28;20485;-81
2021/03/24 04:56:35;;;;;;;120.60;53.63;;;;;;;;;;5098182;28;20113;-80
2021/03/24 04:59:04;;;;;;;129.55;55.05;;;;;;;;;;5097363;28;20129;-82
2021/03/24 05:01:43;;;;;;;122.45;55.42;;;;;;;;;;5096446;28;20056;-82
2021/03/24 05:04:18;;;;;;;118.05;53.53;;;;;;;;;;5107001;28;20052;-82
2021/03/24 05:07:13;;;;;;;121.55;53.03;;;;;;;;;;5138553;27;20048;-81
2021/03/24 05:09:45;;;;;;;126.35;58.05;;;;;;;;;;5088845;28;20048;-80
2021/03/24 05:12:24;;;;;;;126.45;54.22;;;;;;;;;;5108726;28;20044;-81
2021/03/24 05:15:08;;;;;;;118.78;57.08;;;;;;;;;;5096785;28;20072;-81
2021/03/24 05:17:49;;;;;;;127.28;55.50;;;;;;;;;;5103382;28;20044;-81
2021/03/24 05:20:34;;;;;;;124.53;55.20;;;;;;;;;;5115706;28;20112;-81
2021/03/24 05:23:00;;;;;;;107.78;52.17;;;;;;;;;;5114793;28;20249;-82
2021/03/24 05:25:36;;;;;;;123.88;56.22;;;;;;;;;;5114058;28;20050;-81
2021/03/24 05:28:17;;;;;;;120.30;54.08;;;;;;;;;;5114017;28;20070;-82
2021/03/24 05:30:54;;;;;;;130.18;55.60;;;;;;;;;;5112969;28;20404;-81
2021/03/24 05:33:26;;;;;;;122.80;56.05;;;;;;;;;;5113062;27;20059;-81
2021/03/24 05:36:00;;;;;;;133.10;57.38;;;;;;;;;;5114698;28;20102;-81
2021/03/24 05:38:35;;;;;;;125.15;54.40;;;;;;;;;;5115767;28;20119;-82
2021/03/24 05:41:04;;;;;;;129.05;57.45;;;;;;;;;;5113516;28;20052;-80
2021/03/24 05:43:30;;;;;;;126.90;58.13;;;;;;;;;;5097648;28;20044;-82
2021/03/24 05:46:08;;;;;;;132.23;57.03;;;;;;;;;;5094476;28;20089;-81
2021/03/24 05:48:57;;;;;;;114.38;54.83;;;;;;;;;;5108522;28;20129;-81
2021/03/24 05:51:51;;;;;;;124.38;57.08;;;;;;;;;;5076753;28;20040;-81
2021/03/24 05:54:30;;;;;;;128.10;56.80;;;;;;;;;;5095645;28;20148;-81
2021/03/24 05:57:02;;;;;;;137.27;56.67;;;;;;;;;;5105654;28;20047;-81
2021/03/24 05:59:48;;;;;;;129.73;57.90;;;;;;;;;;5120845;28;20047;-81
2021/03/24 06:02:33;;;;;;;139.95;60.17;;;;;;;;;;5126011;28;20335;-81
2021/03/24 06:05:02;;;;;;;128.45;59.25;;;;;;;;;;5111645;28;20338;-81
2021/03/24 06:07:50;;;;;;;127.85;58.33;;;;;;;;;;5102554;28;20052;-81
2021/03/24 06:10:19;;;;;;;133.48;58.45;;;;;;;;;;5114618;28;20204;-81
2021/03/24 06:13:02;;;;;;;122.75;58.13;;;;;;;;;;5116905;27;20086;-81
2021/03/24 06:15:40;;;;;;;121.25;57.42;;;;;;;;;;5114386;28;20473;-81
2021/03/24 06:18:25;;;;;;;128.80;58.47;;;;;;;;;;5111236;28;20075;-81
2021/03/24 06:21:09;;;;;;;124.47;57.47;;;;;;;;;;5109298;28;20044;-81
2021/03/24 06:23:58;;;;;;;123.57;55.65;;;;;;;;;;5112951;27;20051;-82
2021/03/24 06:27:02;;;;;;;119.93;55.05;;;;;;;;;;5091805;28;20079;-82
2021/03/24 06:29:31;;;;;;;124.90;57.17;;;;;;;;;;5090932;28;20116;-80
2021/03/24 06:32:11;;;;;;;125.82;58.42;;;;;;;;;;5090178;28;20095;-80
2021/03/24 06:34:47;;;;;;;128.98;59.22;;;;;;;;;;5090689;28;20090;-82
2021/03/24 06:37:29;;;;;;;120.53;57.92;;;;;;;;;;5089605;28;20401;-82
2021/03/24 06:40:23;;;;;;;123.47;58.38;;;;;;;;;;5088942;28;20104;-83
2021/03/24 06:43:07;;;;;;;124.75;58.92;;;;;;;;;;5091792;28;20078;-81
2021/03/24 06:45:36;;;;;;;;;;;;;;;;;;5112713;27;20050;-82
2021/03/24 06:48:11;;;;;;;121.95;54.92;;;;;;;;;;5111236;28;19919;-82
2021/03/24 06:50:56;;;;;;;121.57;58.70;;;;;;;;;;5109174;28;20294;-81
2021/03/24 06:53:44;;;;;;;115.47;55.53;;;;;;;;;;5107670;28;20073;-81
2021/03/24 06:56:32;;;;;;;113.45;55.55;;;;;;;;;;5108272;28;20058;-81
2021/03/24 06:59:01;;;;;;;121.32;55.83;;;;;;;;;;5106348;28;20295;-80
2021/03/24 07:01:40;;;;;;;124.93;57.90;;;;;;;;;;5108175;28;20217;-80
2021/03/24 07:04:31;;;;;;;120.25;58.17;;;;;;;;;;5106380;28;20435;-81
2021/03/24 07:07:25;;;;;;;122.22;56.78;;;;;;;;;;5115286;28;20086;-81
2021/03/24 07:09:51;;;;;;;115.68;56.80;;;;;;;;;;5123575;28;20039;-81
2021/03/24 07:12:36;;;;;;;115.82;58.03;;;;;;;;;;5124573;28;20255;-81
2021/03/24 07:15:20;;;;;;;115.00;56.08;;;;;;;;;;5103021;28;20036;-81
2021/03/24 07:18:00;;;;;;;114.30;55.05;;;;;;;;;;5088261;28;20063;-81
2021/03/24 07:20:47;;;;;;;115.60;55.38;;;;;;;;;;5088101;28;20051;-81
2021/03/24 07:23:32;;;;;;;112.40;55.60;;;;;;;;;;5116351;28;20150;-82
2021/03/24 07:26:01;;;;;;;126.35;55.60;;;;;;;;;;5125156;28;20177;-82
2021/03/24 07:28:29;;;;;;;116.90;55.25;;;;;;;;;;5112265;28;20215;-83
2021/03/24 07:31:15;;;;;;;114.22;54.67;;;;;;;;;;5109055;28;20435;-82
2021/03/24 07:33:49;;;;;;;117.53;56.70;;;;;;;;;;5104542;27;20650;-81
2021/03/24 07:36:24;;;;;;;117.10;56.75;;;;;;;;;;5094706;28;20059;-82
2021/03/24 07:38:57;;;;;;;120.22;58.08;;;;;;;;;;5086421;28;20044;-83
2021/03/24 07:41:47;;;;;;;114.10;56.13;;;;;;;;;;5087240;28;20059;-81
2021/03/24 07:44:19;;;;;;;122.97;60.55;;;;;;;;;;5088508;28;20188;-81
2021/03/24 07:47:01;;;;;;;128.75;56.80;;;;;;;;;;5085113;28;20203;-82
2021/03/24 07:49:43;;;;;;;116.45;56.83;;;;;;;;;;5096385;28;20075;-81
2021/03/24 07:52:28;;;;;;;114.13;57.90;;;;;;;;;;5109173;28;20108;-81
2021/03/24 07:55:19;;;;;;;116.70;56.05;;;;;;;;;;5111034;28;20058;-81
2021/03/24 07:58:01;;;;;;;112.97;55.83;;;;;;;;;;5121685;28;20055;-82
2021/03/24 08:00:49;;;;;;;117.18;56.70;;;;;;;;;;5121119;28;20261;-82
2021/03/24 08:03:14;;;;;;;123.18;56.15;;;;;;;;;;5101187;28;20224;-82
2021/03/24 08:05:57;;;;;;;119.40;53.63;;;;;;;;;;5111758;28;20043;-82
2021/03/24 08:08:41;;;;;;;111.38;56.63;;;;;;;;;;5108068;28;20077;-82
2021/03/24 08:11:10;;;;;;;107.00;54.92;;;;;;;;;;5095728;28;20273;-83
2021/03/24 08:14:02;;;;;;;109.20;58.58;;;;;;;;;;5086547;28;20048;-82
2021/03/24 08:16:48;;;;;;;106.13;55.92;;;;;;;;;;5085810;28;20099;-81
2021/03/24 08:19:44;;;;;;;114.38;54.35;;;;;;;;;;5087773;28;20090;-81
2021/03/24 08:22:14;;;;;;;112.85;56.63;;;;;;;;;;5083452;28;20044;-80
2021/03/24 08:24:49;;;;;;;106.47;56.28;;;;;;;;;;5083440;28;20052;-80
2021/03/24 08:27:16;;;;;;;;;;;;;;;;;;5090393;28;20043;-81
2021/03/24 08:29:52;;;;;;;107.77;55.77;;;;;;;;;;5104587;28;20113;-80
2021/03/24 08:32:24;;;;;;;110.28;54.50;;;;;;;;;;5108087;28;20057;-81
2021/03/24 08:34:51;;;;;;;106.43;54.75;;;;;;;;;;5106067;28;20359;-81
2021/03/24 08:37:23;;;;;;;104.68;54.45;;;;;;;;;;5105984;28;20048;-81
2021/03/24 08:39:49;;;;;;;111.65;56.25;;;;;;;;;;5109849;28;20541;-81
2021/03/24 08:42:34;;;;;;;105.30;53.67;;;;;;;;;;5111901;28;20184;-82
2021/03/24 08:45:10;;;;;;;105.80;54.30;;;;;;;;;;5111965;28;20183;-81
2021/03/24 08:47:43;;;;;;;106.45;53.60;;;;;;;;;;5106698;28;20112;-80
2021/03/24 08:50:22;;;;;;;99.38;53.47;;;;;;;;;;5105354;27;20051;-82
2021/03/24 08:53:13;;;;;;;101.03;53.67;;;;;;;;;;5108602;27;20396;-82
2021/03/24 08:55:58;;;;;;;100.80;53.33;;;;;;;;;;5106163;28;20205;-83
2021/03/24 08:58:44;;;;;;;108.78;53.67;;;;;;;;;;5107034;28;20108;-82
2021/03/24 09:01:43;;;;;;;98.30;52.25;;;;;;;;;;5106634;28;20047;-81
2021/03/24 09:04:14;;;;;;;100.53;52.28;;;;;;;;;;5063584;28;20298;-83
2021/03/24 09:07:02;;;;;;;96.45;52.42;;;;;;;;;;5105330;28;20101;-83
2021/03/24 09:09:49;;;;;;;97.32;50.88;;;;;;;;;;5104002;27;20051;-81
2021/03/24 09:12:32;;;;;;;95.83;51.17;;;;;;;;;;5088502;28;20044;-81
2021/03/24 09:15:21;;;;;;;95.32;51.72;;;;;;;;;;5099731;28;20326;-82
2021/03/24 09:18:02;;;;;;;91.72;50.05;;;;;;;;;;5123327;28;20050;-81
2021/03/24 09:20:31;;;;;;;85.47;47.90;;;;;;;;;;5112158;27;20052;-81
2021/03/24 09:23:32;;;;;;;92.90;50.03;;;;;;;;;;5117600;28;20067;-83
2021/03/24 09:26:11;;;;;;;82.78;46.55;;;;;;;;;;5108382;28;20091;-82
2021/03/24 09:29:11;;;;;;;94.28;50.22;;;;;;;;;;5106372;28;20116;-81
2021/03/24 09:31:59;;;;;;;82.90;47.67;;;;;;;;;;5089989;28;20082;-82
2021/03/24 09:34:39;;;;;;;83.32;47.22;;;;;;;;;;5089665;28;20056;-82
2021/03/24 09:37:10;;;;;;;84.53;48.08;;;;;;;;;;5090538;28;20227;-82
2021/03/24 09:39:53;;;;;;;84.43;47.63;;;;;;;;;;5109820;28;20044;-82
2021/03/24 09:42:33;;;;;;;88.28;49.67;;;;;;;;;;5108186;28;20168;-82
2021/03/24 09:45:11;;;;;;;82.28;48.40;;;;;;;;;;5108728;28;20299;-82
2021/03/24 09:47:42;;;;;;;87.18;49.03;;;;;;;;;;5095695;28;20576;-82
2021/03/24 09:50:11;;;;;;;79.93;48.05;;;;;;;;;;5100889;28;20055;-83
2021/03/24 09:52:41;;;;;;;82.93;48.83;;;;;;;;;;5102521;28;20195;-82
2021/03/24 09:55:14;;;;;;;78.10;48.28;;;;;;;;;;5089454;28;20134;-82
2021/03/24 09:57:46;;;;;;;80.40;48.15;;;;;;;;;;5103140;28;20044;-82
2021/03/24 10:00:18;;;;;;;75.00;46.13;;;;;;;;;;5106300;28;20524;-82
2021/03/24 10:02:44;;;;;;;79.05;46.58;;;;;;;;;;5105504;28;20101;-82
2021/03/24 10:05:26;;;;;;;76.07;44.78;;;;;;;;;;5106256;28;20043;-82
2021/03/24 10:08:05;;;;;;;75.25;47.88;;;;;;;;;;5107378;28;20039;-83
2021/03/24 10:10:33;;;;;;;74.63;45.05;;;;;;;;;;5107424;28;20058;-82
2021/03/24 10:13:07;;;;;;;79.78;47.08;;;;;;;;;;5105457;28;20071;-82
2021/03/24 10:16:12;;;;;;;79.65;47.55;;;;;;;;;;5108827;28;20146;-81
2021/03/24 10:18:57;;;;;;;79.15;48.78;;;;;;;;;;5033611;28;20133;-81
2021/03/24 10:21:40;;;;;;;79.82;48.67;;;;;;;;;;5049505;28;20490;-82
2021/03/24 10:24:18;;;;;;;83.00;48.15;;;;;;;;;;5047621;28;20049;-83
2021/03/24 10:26:47;;;;;;;81.25;48.67;;;;;;;;;;5046692;28;20055;-82
2021/03/24 10:29:18;;;;;;;80.18;48.55;;;;;;;;;;5039242;28;20048;-83
2021/03/24 10:31:46;;;;;;;81.03;48.53;;;;;;;;;;5097862;27;20332;-83
2021/03/24 10:34:19;;;;;;;80.65;50.00;;;;;;;;;;5103919;28;20059;-83
2021/03/24 10:36:59;;;;;;;87.68;49.90;;;;;;;;;;5109590;28;20273;-81
2021/03/24 10:39:33;;;;;;;82.65;48.42;;;;;;;;;;5095136;28;20052;-82
2021/03/24 10:41:59;;;;;;;82.93;50.15;;;;;;;;;;5085649;28;20044;-82
2021/03/24 10:44:54;;;;;;;80.13;46.72;;;;;;;;;;5086232;28;20044;-82
2021/03/24 10:47:27;;;;;;;82.97;47.30;;;;;;;;;;5102995;28;20047;-83
2021/03/24 10:50:12;;;;;;;79.22;47.22;;;;;;;;;;5108891;28;20052;-83
2021/03/24 10:52:59;;;;;;;81.03;47.22;;;;;;;;;;5106684;28;20479;-80
2021/03/24 10:55:33;;;;;;;75.47;44.88;;;;;;;;;;5087802;28;20051;-83
2021/03/24 10:58:06;;;;;;;75.28;44.60;;;;;;;;;;5085405;28;20048;-83
2021/03/24 11:00:59;;;;;;;76.35;44.00;;;;;;;;;;5086489;28;20056;-83
2021/03/24 11:03:44;;;;;;;70.30;42.92;;;;;;;;;;5088248;28;20044;-82
2021/03/24 11:06:36;;;;;;;71.18;41.47;;;;;;;;;;5102386;28;20060;-83
2021/03/24 11:09:07;;;;;;;69.90;41.75;;;;;;;;;;5111100;27;20144;-84
2021/03/24 11:11:47;;;;;;;73.57;42.28;;;;;;;;;;5107586;27;20193;-83
2021/03/24 11:14:30;;;;;;;68.53;40.88;;;;;;;;;;5106269;28;20055;-82
2021/03/24 11:17:06;;;;;;;63.45;39.80;;;;;;;;;;5103847;28;20039;-82
2021/03/24 11:19:32;;;;;;;;;;;;;;;;;;5102879;28;20404;-83
2021/03/24 11:22:05;;;;;;;76.33;40.53;;;;;;;;;;5112643;27;19985;-81
2021/03/24 11:24:53;;;;;;;69.57;38.83;;;;;;;;;;5124120;27;20051;-83
2021/03/24 11:27:34;;;;;;;62.28;38.35;;;;;;;;;;5099917;27;20248;-82
2021/03/24 11:30:19;;;;;;;66.15;39.65;;;;;;;;;;5082311;28;20048;-83
2021/03/24 11:32:49;;;;;;;67.25;39.20;;;;;;;;;;5106989;27;20146;-83
2021/03/24 11:35:31;;;;;;;61.13;38.25;;;;;;;;;;5084386;28;20067;-82
2021/03/24 11:38:00;;;;;;;57.75;36.25;;;;;;;;;;5084320;28;20050;-82
2021/03/24 11:40:44;;;;;;;67.30;39.85;;;;;;;;;;5083917;28;20055;-81
2021/03/24 11:43:20;;;;;;;67.22;39.53;;;;;;;;;;5083977;28;20224;-83
2021/03/24 11:45:49;;;;;;;65.15;38.83;;;;;;;;;;5095539;28;20336;-83
2021/03/24 11:48:25;;;;;;;65.00;40.50;;;;;;;;;;5085305;28;20272;-83
2021/03/24 11:50:58;;;;;;;59.45;36.80;;;;;;;;;;5090062;28;20107;-81
2021/03/24 11:53:42;;;;;;;63.70;38.05;;;;;;;;;;5084273;28;20336;-83
2021/03/24 11:56:15;;;;;;;58.58;35.67;;;;;;;;;;5088942;28;20047;-81
2021/03/24 11:59:04;;;;;;;67.47;38.85;;;;;;;;;;5103215;28;20123;-84
2021/03/24 12:01:52;;;;;;;60.72;39.20;;;;;;;;;;5095110;28;20203;-82
2021/03/24 12:04:21;;;;;;;65.18;38.40;;;;;;;;;;5108999;28;20104;-80
2021/03/24 12:06:48;;;;;;;62.45;37.75;;;;;;;;;;5112587;28;20052;-81
2021/03/24 12:09:20;;;;;;;61.03;35.78;;;;;;;;;;5103610;27;20420;-80
2021/03/24 12:11:48;;;;;;;65.15;37.97;;;;;;;;;;5094561;28;20059;-82
2021/03/24 12:14:17;;;;;;;64.75;37.78;;;;;;;;;;5110295;27;20059;-80
2021/03/24 12:16:57;;;;;;;62.08;36.50;;;;;;;;;;5130062;27;20450;-81
2021/03/24 12:19:40;;;;;;;60.97;36.75;;;;;;;;;;5132429;27;20054;-81
2021/03/24 12:22:28;;;;;;;57.55;37.13;;;;;;;;;;5119946;27;20287;-81
2021/03/24 12:25:13;;;;;;;66.57;38.78;;;;;;;;;;5089618;28;20062;-80
2021/03/24 12:27:47;;;;;;;66.70;36.47;;;;;;;;;;5097654;28;20040;-82
2021/03/24 12:30:21;;;;;;;57.70;35.17;;;;;;;;;;5091868;28;20269;-80
2021/03/24 12:32:48;;;;;;;62.08;37.20;;;;;;;;;;5114613;28;20051;-82
2021/03/24 12:35:20;;;;;;;59.88;34.90;;;;;;;;;;5125643;27;20072;-82
2021/03/24 12:37:50;;;;;;;60.33;34.70;;;;;;;;;;5125379;28;20039;-81
2021/03/24 12:40:23;;;;;;;58.53;36.35;;;;;;;;;;5123880;28;20082;-80
2021/03/24 12:42:50;;;;;;;63.13;36.50;;;;;;;;;;5119786;28;20066;-81
2021/03/24 12:45:26;;;;;;;58.55;32.47;;;;;;;;;;5123379;27;20044;-80
2021/03/24 12:48:03;;;;;;;59.00;35.33;;;;;;;;;;5120121;28;20051;-81
2021/03/24 12:50:31;;;;;;;57.15;34.75;;;;;;;;;;5113075;28;20235;-81
2021/03/24 12:53:16;;;;;;;58.83;34.40;;;;;;;;;;5111825;28;20044;-81
2021/03/24 12:55:45;;;;;;;61.38;36.03;;;;;;;;;;5100649;28;20052;-81
2021/03/24 12:58:27;;;;;;;61.13;35.35;;;;;;;;;;5100779;28;20177;-80
2021/03/24 13:01:10;;;;;;;59.83;33.22;;;;;;;;;;5092005;28;20168;-80
2021/03/24 13:03:36;;;;;;;59.45;33.45;;;;;;;;;;5103408;28;20261;-81
2021/03/24 13:06:05;;;;;;;57.38;33.28;;;;;;;;;;5113039;28;20149;-82
2021/03/24 13:08:36;;;;;;;62.22;34.28;;;;;;;;;;5111751;28;20051;-80
2021/03/24 13:11:03;;;;;;;52.88;31.90;;;;;;;;;;5102554;27;20296;-81
2021/03/24 13:13:48;;;;;;;55.97;32.20;;;;;;;;;;5119593;27;20055;-81
2021/03/24 13:16:33;;;;;;;49.10;29.50;;;;;;;;;;5142154;27;20115;-80
2021/03/24 13:19:09;;;;;;;53.88;32.13;;;;;;;;;;5124015;28;20058;-82
2021/03/24 13:21:54;;;;;;;49.53;30.60;;;;;;;;;;5118922;28;20384;-82
2021/03/24 13:24:34;;;;;;;51.63;29.73;;;;;;;;;;5110905;28;20049;-81
2021/03/24 13:27:14;;;;;;;56.83;31.52;;;;;;;;;;5093104;27;20354;-80
2021/03/24 13:29:50;;;;;;;56.50;32.33;;;;;;;;;;5094559;28;20071;-81
2021/03/24 13:32:31;;;;;;;64.10;34.35;;;;;;;;;;5090088;28;20454;-81
2021/03/24 13:35:14;;;;;;;53.20;31.83;;;;;;;;;;5091317;28;20112;-81
2021/03/24 13:37:41;;;;;;;54.67;31.88;;;;;;;;;;5096026;28;20079;-81
2021/03/24 13:40:29;;;;;;;55.63;32.17;;;;;;;;;;5114059;28;20176;-80
2021/03/24 13:42:58;;;;;;;58.80;32.58;;;;;;;;;;5112791;28;20534;-80
2021/03/24 13:45:31;;;;;;;64.05;32.65;;;;;;;;;;5106382;28;20055;-79
2021/03/24 13:48:13;;;;;;;56.08;32.25;;;;;;;;;;5107633;28;20071;-79
2021/03/24 13:50:51;;;;;;;54.28;31.40;;;;;;;;;;5106598;28;20055;-80
2021/03/24 13:53:30;;;;;;;51.08;29.60;;;;;;;;;;5088051;28;20350;-79
2021/03/24 13:56:14;;;;;;;53.97;32.45;;;;;;;;;;5090464;28;20105;-80
2021/03/24 13:58:46;;;;;;;59.05;33.70;;;;;;;;;;5088181;28;20614;-80
2021/03/24 14:01:38;;;;;;;61.70;34.50;;;;;;;;;;5092022;28;20051;-80
2021/03/24 14:04:23;;;;;;;54.83;33.05;;;;;;;;;;5088446;28;20059;-80
2021/03/24 14:07:19;;;;;;;64.80;34.05;;;;;;;;;;5087926;28;20301;-80
2021/03/24 14:09:51;;;;;;;61.45;33.45;;;;;;;;;;5086683;28;20048;-82
2021/03/24 14:12:50;;;;;;;63.35;33.70;;;;;;;;;;5104783;28;20442;-80
2021/03/24 14:15:28;;;;;;;63.83;34.40;;;;;;;;;;5108675;28;20378;-80
2021/03/24 14:18:12;;;;;;;59.60;34.67;;;;;;;;;;5108179;28;20111;-80
2021/03/24 14:20:58;;;;;;;62.60;35.05;;;;;;;;;;5101591;28;20142;-80
2021/03/24 14:23:24;;;;;;;57.35;33.75;;;;;;;;;;5086960;27;20075;-80
2021/03/24 14:25:59;;;;;;;67.70;34.63;;;;;;;;;;5087520;28;20062;-81
2021/03/24 14:28:41;;;;;;;60.15;33.47;;;;;;;;;;5087679;28;20439;-79
2021/03/24 14:31:11;;;;;;;56.92;31.88;;;;;;;;;;5110567;28;20043;-80
2021/03/24 14:33:42;;;;;;;56.63;28.90;;;;;;;;;;5096944;28;20056;-79
2021/03/24 14:36:30;;;;;;;52.97;28.38;;;;;;;;;;5089191;28;20050;-80
2021/03/24 14:39:08;;;;;;;52.78;28.30;;;;;;;;;;5105417;28;20052;-80
2021/03/24 14:41:44;;;;;;;54.30;26.25;;;;;;;;;;5107691;28;20044;-80
2021/03/24 14:44:18;;;;;;;53.63;27.65;;;;;;;;;;5105869;28;20051;-80
2021/03/24 14:47:11;;;;;;;48.90;26.90;;;;;;;;;;5107975;28;20047;-80
2021/03/24 14:49:53;;;;;;;48.97;27.58;;;;;;;;;;5088900;27;20248;-80
2021/03/24 14:52:36;;;;;;;57.20;29.30;;;;;;;;;;5094636;28;20116;-80
2021/03/24 14:55:32;;;;;;;49.00;27.00;;;;;;;;;;5080986;28;20051;-80
2021/03/24 14:58:11;;;;;;;52.60;27.52;;;;;;;;;;5087851;27;20215;-80
2021/03/24 15:00:41;;;;;;;50.70;26.85;;;;;;;;;;5088059;27;20071;-80